GRZ549 Details

Departure: Petersburg James A Johnson Airport (PAPG)
Arrival: Juneau International Airport (PAJN) at N/A
Route: GORBY4 ODECO R1050 STVNS
Notes:


Current Weather Information
PAPG 191656Z 05005KT 10SM SCT060 BKN080 11/04 A2993 RMK AO2 SLP138 T01060044
PAJN 191653Z 11015KT 10SM FEW075 BKN130 12/02 A2992 RMK AO2 SLP132 T01170017